Time;durP1;ratioP1;P1;durP2;ratioP2;P2;SDS_P1;SDS_P2;PMS_P1;PMS_P2;Temp;Humidity;BMP_temperature;BMP_pressure;BME280_temperature;BME280_humidity;BME280_pressure;Samples;Min_cycle;Max_cycle;Signal;HPM_P1;HPM_P2
2023/10/29 00:00:56;;;;;;;2.53;1.47;;;;;;;12.32;100.00;98591.44;5032886;28;20233;-82
2023/10/29 00:03:25;;;;;;;2.27;1.50;;;;;;;12.31;100.00;98581.06;5032089;28;20224;-82
2023/10/29 00:05:54;;;;;;;2.27;1.73;;;;;;;12.31;100.00;98562.75;5017225;28;20297;-83
2023/10/29 00:08:35;;;;;;;2.33;1.77;;;;;;;12.37;100.00;98558.94;5017454;28;20771;-83
2023/10/29 00:11:05;;;;;;;3.60;1.30;;;;;;;12.36;100.00;98554.66;5033978;28;20202;-82
2023/10/29 00:13:36;;;;;;;2.40;1.40;;;;;;;12.31;100.00;98555.75;5031755;28;20210;-82
2023/10/29 00:16:03;;;;;;;2.93;1.60;;;;;;;12.35;100.00;98545.09;5042922;28;20210;-83
2023/10/29 00:18:29;;;;;;;2.70;1.60;;;;;;;12.31;100.00;98537.44;5037107;28;20234;-82
2023/10/29 00:21:00;;;;;;;3.57;1.50;;;;;;;12.30;100.00;98522.66;5031530;28;20237;-82
2023/10/29 00:23:36;;;;;;;2.00;1.57;;;;;;;12.30;100.00;98525.28;5031633;28;20207;-83
2023/10/29 00:26:03;;;;;;;2.00;1.30;;;;;;;12.31;100.00;98520.91;5040113;28;20244;-83
2023/10/29 00:28:29;;;;;;;2.97;1.37;;;;;;;12.32;100.00;98517.34;5031315;28;20226;-82
2023/10/29 00:30:56;;;;;;;2.77;1.70;;;;;;;12.31;100.00;98532.22;5032150;28;20896;-83
2023/10/29 00:33:26;;;;;;;4.13;1.60;;;;;;;12.19;100.00;98525.06;5033186;28;20692;-83
2023/10/29 00:35:54;;;;;;;2.20;1.23;;;;;;;12.26;100.00;98510.69;5021340;28;20230;-83
2023/10/29 00:38:31;;;;;;;3.73;1.73;;;;;;;12.25;100.00;98509.00;5009139;28;20229;-82
2023/10/29 00:41:02;;;;;;;2.20;1.40;;;;;;;12.30;100.00;98508.75;5031745;28;20231;-82
2023/10/29 00:43:28;;;;;;;2.60;1.40;;;;;;;12.34;100.00;98506.81;5025779;28;20198;-82
2023/10/29 00:45:58;;;;;;;1.73;1.23;;;;;;;12.39;100.00;98504.75;5032402;28;20213;-80
2023/10/29 00:48:31;;;;;;;1.53;1.43;;;;;;;12.42;100.00;98500.19;5033559;28;20233;-82
2023/10/29 00:50:57;;;;;;;2.00;1.80;;;;;;;12.39;100.00;98510.84;5035286;28;20194;-82
2023/10/29 00:53:24;;;;;;;3.00;1.57;;;;;;;12.38;100.00;98511.75;5034011;28;20583;-82
2023/10/29 00:55:54;;;;;;;2.20;1.37;;;;;;;12.36;100.00;98508.38;5033905;28;20202;-82
2023/10/29 00:58:21;;;;;;;3.07;1.60;;;;;;;12.30;100.00;98514.81;5033778;28;20233;-80
2023/10/29 01:00:54;;;;;;;3.57;2.00;;;;;;;12.36;100.00;98487.47;5035497;28;20747;-82
2023/10/29 01:03:20;;;;;;;3.37;1.50;;;;;;;12.48;100.00;98489.34;5038388;28;20661;-82
2023/10/29 01:05:47;;;;;;;2.80;1.30;;;;;;;12.49;100.00;98485.00;5038972;28;20212;-82
2023/10/29 01:08:14;;;;;;;1.57;1.30;;;;;;;12.50;100.00;98482.25;5035006;28;20745;-82
2023/10/29 01:10:40;;;;;;;3.03;1.20;;;;;;;12.49;100.00;98491.06;5028010;28;20214;-82
2023/10/29 01:13:13;;;;;;;2.60;1.20;;;;;;;12.57;100.00;98482.75;5044549;28;20267;-81
2023/10/29 01:15:39;;;;;;;2.50;1.20;;;;;;;12.54;100.00;98480.31;5047030;28;20217;-82
2023/10/29 01:18:06;;;;;;;1.70;1.03;;;;;;;12.60;100.00;98476.50;5038212;28;20234;-82
2023/10/29 01:20:33;;;;;;;2.00;1.30;;;;;;;12.72;100.00;98486.22;5037851;28;20230;-81
2023/10/29 01:23:02;;;;;;;1.30;1.10;;;;;;;12.89;100.00;98498.34;5038474;28;20209;-82
2023/10/29 01:25:29;;;;;;;3.43;1.63;;;;;;;12.95;100.00;98528.56;5037800;28;20202;-82
2023/10/29 01:27:56;;;;;;;1.70;1.10;;;;;;;12.66;100.00;98520.63;5037722;28;20398;-82
2023/10/29 01:30:26;;;;;;;1.50;1.20;;;;;;;12.88;100.00;98504.50;5038380;28;20259;-82
2023/10/29 01:32:53;;;;;;;1.33;1.07;;;;;;;12.94;100.00;98521.63;5038818;28;20225;-82
2023/10/29 01:35:20;;;;;;;2.60;1.20;;;;;;;12.79;100.00;98520.78;5038178;28;20198;-82
2023/10/29 01:37:50;;;;;;;1.20;1.10;;;;;;;12.93;100.00;98515.56;5038021;28;20230;-82
2023/10/29 01:40:17;;;;;;;1.97;1.73;;;;;;;13.08;100.00;98526.88;5026754;28;20230;-82
2023/10/29 01:42:45;;;;;;;2.70;1.10;;;;;;;13.05;100.00;98541.00;5032495;28;20222;-82
2023/10/29 01:45:14;;;;;;;2.80;1.10;;;;;;;13.07;100.00;98526.03;5046527;28;20202;-82
2023/10/29 01:47:42;;;;;;;1.63;1.00;;;;;;;13.07;100.00;98527.81;5038187;28;20639;-82
2023/10/29 01:50:11;;;;;;;3.20;1.20;;;;;;;13.06;100.00;98527.00;5037875;28;20563;-82
2023/10/29 01:52:38;;;;;;;1.70;1.20;;;;;;;13.06;100.00;98521.75;5038300;28;20273;-82
2023/10/29 01:55:06;;;;;;;1.70;1.07;;;;;;;13.15;100.00;98524.75;5037332;28;20202;-82
2023/10/29 01:57:38;;;;;;;2.40;1.70;;;;;;;13.00;100.00;98518.63;5046122;28;20199;-82
2023/10/29 02:00:08;;;;;;;1.20;1.00;;;;;;;13.00;100.00;98503.78;5037500;28;20221;-82
2023/10/29 02:02:38;;;;;;;4.90;1.50;;;;;;;13.08;100.00;98492.81;5038189;28;20229;-82
2023/10/29 02:05:07;;;;;;;2.37;0.90;;;;;;;13.19;100.00;98497.41;5037901;28;20607;-82
2023/10/29 02:07:36;;;;;;;1.57;1.43;;;;;;;13.20;100.00;98501.72;5037713;28;20210;-82
2023/10/29 02:10:03;;;;;;;1.90;1.10;;;;;;;13.07;100.00;98480.69;5020841;28;20226;-82
2023/10/29 02:12:29;;;;;;;1.20;1.10;;;;;;;13.08;100.00;98479.72;5030055;28;20202;-82
2023/10/29 02:14:56;;;;;;;1.37;1.17;;;;;;;13.01;100.00;98462.72;5037332;28;20391;-82
2023/10/29 02:17:24;;;;;;;1.53;1.03;;;;;;;13.15;100.00;98464.50;5029793;28;20202;-82
2023/10/29 02:19:55;;;;;;;2.37;1.50;;;;;;;13.18;100.00;98454.69;5036686;28;20229;-82
2023/10/29 02:22:23;;;;;;;1.33;1.13;;;;;;;13.00;100.00;98448.78;5037663;28;20230;-82
2023/10/29 02:24:49;;;;;;;1.67;0.97;;;;;;;13.15;100.00;98436.50;5036868;28;20831;-82
2023/10/29 02:27:16;;;;;;;3.10;1.17;;;;;;;13.11;100.00;98448.94;5037874;28;20788;-82
2023/10/29 02:29:48;;;;;;;1.23;1.10;;;;;;;13.16;100.00;98445.19;5037209;28;20262;-82
2023/10/29 02:32:15;;;;;;;2.17;1.37;;;;;;;13.22;100.00;98434.34;5037696;28;20214;-81
2023/10/29 02:34:42;;;;;;;1.73;1.30;;;;;;;13.20;100.00;98430.97;5037399;28;20228;-81
2023/10/29 02:37:08;;;;;;;2.83;1.20;;;;;;;13.26;100.00;98438.44;5037637;28;20213;-81
2023/10/29 02:39:36;;;;;;;2.63;1.10;;;;;;;13.20;100.00;98447.56;5033656;28;20630;-82
2023/10/29 02:42:02;;;;;;;1.47;1.10;;;;;;;13.15;100.00;98427.81;5026951;28;20226;-81
2023/10/29 02:44:29;;;;;;;1.80;0.93;;;;;;;12.98;100.00;98407.88;5041154;28;20205;-81
2023/10/29 02:46:58;;;;;;;0.97;0.90;;;;;;;13.19;100.00;98421.44;5041293;28;20578;-81
2023/10/29 02:49:24;;;;;;;1.07;0.90;;;;;;;13.16;100.00;98416.38;5037370;28;20218;-82
2023/10/29 02:51:52;;;;;;;1.00;0.90;;;;;;;13.10;100.00;98413.22;5037130;28;20205;-81
2023/10/29 02:54:18;;;;;;;1.77;1.10;;;;;;;12.99;100.00;98409.59;5039643;28;20241;-81
2023/10/29 02:56:46;;;;;;;2.53;0.90;;;;;;;12.88;100.00;98395.38;5042460;28;20202;-81
2023/10/29 02:59:13;;;;;;;1.20;0.77;;;;;;;12.74;100.00;98368.34;5037186;28;20254;-81
2023/10/29 03:01:39;;;;;;;1.80;1.00;;;;;;;12.91;100.00;98362.91;5036857;28;20230;-82
2023/10/29 03:04:08;;;;;;;1.83;1.20;;;;;;;12.88;100.00;98369.19;5037367;28;20471;-81
2023/10/29 03:06:39;;;;;;;2.60;1.60;;;;;;;12.88;100.00;98376.19;5036482;28;20198;-82
2023/10/29 03:09:06;;;;;;;1.17;0.87;;;;;;;12.94;100.00;98361.88;5028936;28;20236;-81
2023/10/29 03:11:32;;;;;;;1.33;0.77;;;;;;;12.97;100.00;98349.44;5036465;28;20248;-81
2023/10/29 03:14:01;;;;;;;0.90;0.90;;;;;;;12.89;100.00;98346.47;5036429;28;20686;-81
2023/10/29 03:16:27;;;;;;;2.80;1.10;;;;;;;12.90;100.00;98329.81;5036164;28;20218;-82
2023/10/29 03:18:56;;;;;;;1.53;0.80;;;;;;;12.80;100.00;98321.66;5036530;28;20242;-82
2023/10/29 03:21:22;;;;;;;1.73;1.37;;;;;;;12.90;100.00;98320.19;5036626;28;20206;-82
2023/10/29 03:23:48;;;;;;;1.37;1.10;;;;;;;12.89;100.00;98322.91;5036522;28;20212;-81
2023/10/29 03:26:15;;;;;;;2.87;1.27;;;;;;;12.89;100.00;98318.50;5036802;28;20402;-82
2023/10/29 03:28:47;;;;;;;2.90;0.90;;;;;;;12.97;100.00;98327.66;5035995;28;20728;-82
2023/10/29 03:31:18;;;;;;;1.40;1.27;;;;;;;12.97;100.00;98343.38;5045340;28;20206;-82
2023/10/29 03:33:46;;;;;;;3.13;1.20;;;;;;;12.95;100.00;98334.78;5035977;28;20206;-82
2023/10/29 03:36:12;;;;;;;1.60;1.00;;;;;;;12.90;100.00;98335.03;5036338;28;20298;-82
2023/10/29 03:38:39;;;;;;;2.10;1.03;;;;;;;12.94;100.00;98325.22;5031304;28;20219;-82
2023/10/29 03:41:06;;;;;;;2.93;1.53;;;;;;;12.92;100.00;98327.94;5033000;28;20207;-82
2023/10/29 03:43:33;;;;;;;2.77;1.03;;;;;;;12.99;100.00;98326.63;5035538;28;20249;-82
2023/10/29 03:46:00;;;;;;;2.50;1.03;;;;;;;13.04;100.00;98334.19;5036689;28;20210;-82
2023/10/29 03:48:28;;;;;;;1.47;0.90;;;;;;;12.98;100.00;98329.31;5036368;28;20281;-82
2023/10/29 03:50:57;;;;;;;5.03;1.40;;;;;;;12.96;100.00;98313.69;5036944;28;20210;-82
2023/10/29 03:53:23;;;;;;;2.30;1.17;;;;;;;12.93;100.00;98321.75;5036808;28;20210;-82
2023/10/29 03:55:50;;;;;;;1.57;1.10;;;;;;;12.97;100.00;98304.91;5035646;28;20225;-82
2023/10/29 03:58:16;;;;;;;2.40;0.87;;;;;;;12.96;100.00;98312.88;5036937;28;20739;-82
2023/10/29 04:00:50;;;;;;;1.87;1.00;;;;;;;13.01;100.00;98306.41;5042387;28;20203;-82
2023/10/29 04:03:17;;;;;;;1.47;0.90;;;;;;;13.01;100.00;98308.19;5036029;28;20226;-82
2023/10/29 04:05:50;;;;;;;2.10;0.83;;;;;;;13.08;100.00;98314.72;5036052;28;20213;-82
2023/10/29 04:08:16;;;;;;;1.90;1.10;;;;;;;13.02;100.00;98302.88;5034154;28;20222;-82
2023/10/29 04:10:46;;;;;;;1.17;1.00;;;;;;;12.93;100.00;98316.53;5021329;28;20619;-83
2023/10/29 04:13:12;;;;;;;2.23;0.83;;;;;;;12.90;100.00;98312.34;5035551;28;20674;-82
2023/10/29 04:15:39;;;;;;;2.20;0.93;;;;;;;13.07;100.00;98316.50;5036268;28;20206;-82
2023/10/29 04:18:05;;;;;;;1.87;0.97;;;;;;;13.08;100.00;98310.34;5036266;28;20252;-82
2023/10/29 04:20:32;;;;;;;3.57;0.90;;;;;;;13.02;100.00;98321.19;5036126;28;20207;-82
2023/10/29 04:22:59;;;;;;;3.00;1.77;;;;;;;13.10;100.00;98297.13;5035522;28;20230;-82
2023/10/29 04:25:26;;;;;;;2.97;1.20;;;;;;;12.99;100.00;98312.69;5036795;28;20312;-82
2023/10/29 04:27:52;;;;;;;1.47;0.80;;;;;;;13.05;100.00;98305.28;5035340;28;20206;-82
2023/10/29 04:30:19;;;;;;;2.97;0.90;;;;;;;13.08;100.00;98315.56;5036400;28;20584;-82
2023/10/29 04:32:45;;;;;;;1.47;1.00;;;;;;;13.00;100.00;98320.47;5037034;28;20206;-82
2023/10/29 04:35:12;;;;;;;1.47;0.93;;;;;;;13.04;100.00;98297.50;5035009;28;20582;-82
2023/10/29 04:37:44;;;;;;;1.37;1.20;;;;;;;12.99;100.00;98294.34;5035354;28;20215;-82
2023/10/29 04:40:12;;;;;;;0.93;0.93;;;;;;;13.02;100.00;98286.28;5030989;28;20222;-82
2023/10/29 04:42:39;;;;;;;2.60;1.27;;;;;;;13.11;100.00;98290.94;5028382;28;20596;-81
2023/10/29 04:45:11;;;;;;;1.17;0.70;;;;;;;13.21;100.00;98273.69;5034592;28;20207;-82
2023/10/29 04:47:37;;;;;;;2.07;1.10;;;;;;;13.14;100.00;98264.56;5043256;28;20731;-82
2023/10/29 04:50:05;;;;;;;1.37;1.00;;;;;;;13.18;100.00;98263.44;5035425;28;20610;-81
2023/10/29 04:52:31;;;;;;;1.20;1.10;;;;;;;13.10;100.00;98253.44;5035547;28;20260;-82
2023/10/29 04:54:57;;;;;;;2.03;1.07;;;;;;;13.05;100.00;98252.88;5036257;28;20206;-82
2023/10/29 04:57:25;;;;;;;2.60;0.80;;;;;;;13.19;100.00;98236.28;5035549;28;20215;-82
2023/10/29 04:59:52;;;;;;;1.60;0.83;;;;;;;13.26;100.00;98237.56;5036105;28;20228;-82
2023/10/29 05:02:18;;;;;;;0.83;0.80;;;;;;;13.11;100.00;98276.06;5037253;28;20599;-82
2023/10/29 05:04:45;;;;;;;1.07;1.00;;;;;;;13.19;100.00;98291.28;5042208;28;20205;-82
2023/10/29 05:07:11;;;;;;;1.40;0.90;;;;;;;13.19;100.00;98299.16;5035245;28;20210;-82
2023/10/29 05:09:38;;;;;;;1.20;0.60;;;;;;;13.20;100.00;98292.13;5024260;28;20249;-82
2023/10/29 05:12:05;;;;;;;1.00;0.80;;;;;;;13.22;100.00;98282.38;5024008;28;20195;-82
2023/10/29 05:14:33;;;;;;;3.43;1.10;;;;;;;13.47;100.00;98294.78;5035185;28;20202;-82
2023/10/29 05:16:59;;;;;;;2.03;1.10;;;;;;;13.68;99.00;98326.63;5036272;28;20202;-82
2023/10/29 05:19:26;;;;;;;0.80;0.80;;;;;;;13.61;98.11;98341.91;5034999;28;20797;-82
2023/10/29 05:21:55;;;;;;;2.10;0.83;;;;;;;13.48;97.88;98373.31;5036258;28;20214;-82
2023/10/29 05:24:22;;;;;;;2.57;0.90;;;;;;;13.44;97.98;98376.25;5036249;28;20206;-82
2023/10/29 05:26:48;;;;;;;1.30;1.00;;;;;;;13.70;97.50;98379.81;5035908;28;20230;-82
2023/10/29 05:29:16;;;;;;;1.20;0.90;;;;;;;13.41;97.16;98397.38;5034829;28;20230;-82
2023/10/29 05:31:43;;;;;;;1.37;0.80;;;;;;;13.30;98.55;98382.34;5034009;28;20272;-82
2023/10/29 05:34:10;;;;;;;1.90;0.90;;;;;;;13.33;99.65;98366.44;5040143;28;20222;-82
2023/10/29 05:36:39;;;;;;;1.57;0.90;;;;;;;13.37;99.15;98359.22;5031537;28;20662;-81
2023/10/29 05:39:07;;;;;;;1.70;1.00;;;;;;;13.34;99.41;98362.00;5024207;28;20219;-81
2023/10/29 05:41:33;;;;;;;2.23;0.80;;;;;;;13.34;98.77;98390.84;5022600;28;20203;-82
2023/10/29 05:44:01;;;;;;;2.93;1.10;;;;;;;13.64;97.07;98428.22;5031498;28;20227;-82
2023/10/29 05:46:27;;;;;;;0.90;0.90;;;;;;;13.65;97.39;98431.69;5031897;28;20296;-82
2023/10/29 05:48:55;;;;;;;1.47;0.80;;;;;;;13.75;96.79;98426.69;5043055;28;20656;-82
2023/10/29 05:51:28;;;;;;;1.23;0.90;;;;;;;13.78;96.27;98437.00;5035045;28;20205;-81
2023/10/29 05:53:57;;;;;;;2.43;0.70;;;;;;;13.27;96.74;98458.50;5035313;28;20202;-82
2023/10/29 05:56:24;;;;;;;1.07;0.83;;;;;;;13.07;100.00;98400.31;5035381;28;20242;-82
2023/10/29 05:58:52;;;;;;;1.10;0.80;;;;;;;13.12;100.00;98360.72;5034457;28;20241;-81
2023/10/29 06:01:18;;;;;;;3.47;0.80;;;;;;;13.23;100.00;98341.72;5040459;28;20211;-82
2023/10/29 06:03:45;;;;;;;1.57;1.10;;;;;;;12.74;100.00;98314.22;5044764;28;20227;-82
2023/10/29 06:06:12;;;;;;;3.10;1.00;;;;;;;12.61;100.00;98259.19;5059964;28;20196;-81
2023/10/29 06:08:39;;;;;;;1.33;0.90;;;;;;;12.65;100.00;98204.88;5056313;28;20217;-81
2023/10/29 06:11:05;;;;;;;1.47;0.77;;;;;;;13.24;100.00;98242.06;5039730;28;20187;-82
2023/10/29 06:13:32;;;;;;;0.80;0.80;;;;;;;13.41;99.76;98318.78;5058134;28;20194;-81
2023/10/29 06:16:12;;;;;;;1.27;0.90;;;;;;;13.46;97.35;98353.41;5058130;28;20215;-82
2023/10/29 06:18:38;;;;;;;1.00;0.70;;;;;;;13.57;96.62;98394.63;5037083;28;20934;-82
2023/10/29 06:21:05;;;;;;;1.53;0.93;;;;;;;13.60;96.06;98420.66;5037259;28;20204;-82
2023/10/29 06:23:33;;;;;;;1.80;0.97;;;;;;;13.72;95.09;98448.72;5037291;28;20237;-82
2023/10/29 06:25:59;;;;;;;1.67;0.70;;;;;;;13.60;94.68;98452.13;5036947;28;20206;-82
2023/10/29 06:28:25;;;;;;;1.50;0.80;;;;;;;13.73;95.41;98473.97;5036817;28;20232;-82
2023/10/29 06:30:56;;;;;;;0.93;0.70;;;;;;;13.74;94.83;98474.84;5037435;28;20556;-82
2023/10/29 06:33:22;;;;;;;2.47;0.80;;;;;;;13.75;94.51;98492.25;5036990;28;20207;-81
2023/10/29 06:35:48;;;;;;;3.47;0.80;;;;;;;13.67;94.03;98500.59;5036592;28;20203;-81
2023/10/29 06:38:15;;;;;;;1.27;0.83;;;;;;;13.69;94.06;98517.91;5035626;28;20229;-82
2023/10/29 06:40:43;;;;;;;1.27;0.80;;;;;;;13.81;93.30;98523.31;5018210;28;20287;-82
2023/10/29 06:43:12;;;;;;;2.70;1.00;;;;;;;13.76;92.37;98526.25;5015216;28;20238;-82
2023/10/29 06:45:39;;;;;;;1.77;0.80;;;;;;;13.93;92.27;98530.41;5029044;28;20202;-82
2023/10/29 06:48:06;;;;;;;1.20;0.80;;;;;;;13.99;91.88;98543.13;5046089;28;20260;-82
2023/10/29 06:50:36;;;;;;;1.87;0.83;;;;;;;13.83;92.01;98561.63;5037206;28;20207;-82
2023/10/29 06:53:05;;;;;;;1.57;0.90;;;;;;;13.76;91.19;98586.56;5037139;28;20205;-82
2023/10/29 06:55:32;;;;;;;1.40;0.87;;;;;;;13.91;90.64;98587.38;5037093;28;20840;-82
2023/10/29 06:57:59;;;;;;;1.17;0.70;;;;;;;13.86;91.40;98571.94;5036078;28;20205;-82
2023/10/29 07:00:26;;;;;;;0.67;0.63;;;;;;;13.97;91.72;98562.53;5044390;28;20204;-82
2023/10/29 07:02:52;;;;;;;1.47;1.00;;;;;;;13.82;90.93;98580.94;5037599;28;20231;-82
2023/10/29 07:05:20;;;;;;;4.70;0.90;;;;;;;14.00;90.72;98588.59;5036564;28;20217;-82
2023/10/29 07:07:47;;;;;;;1.10;0.90;;;;;;;13.98;90.80;98593.09;5035775;28;20199;-82
2023/10/29 07:10:14;;;;;;;1.03;0.80;;;;;;;13.79;90.17;98585.50;5037215;28;20235;-82
2023/10/29 07:12:40;;;;;;;2.97;1.00;;;;;;;14.06;90.27;98602.16;5034670;28;20208;-82
2023/10/29 07:15:10;;;;;;;2.10;0.90;;;;;;;14.10;89.77;98594.94;5023386;28;20204;-82
2023/10/29 07:17:36;;;;;;;0.60;0.60;;;;;;;14.03;89.02;98606.75;5036488;28;20208;-82
2023/10/29 07:20:04;;;;;;;2.20;0.77;;;;;;;14.20;89.43;98608.31;5036325;28;20219;-82
2023/10/29 07:22:30;;;;;;;1.57;0.90;;;;;;;14.14;88.72;98622.66;5038470;28;20215;-82
2023/10/29 07:25:05;;;;;;;2.17;0.80;;;;;;;14.24;88.57;98638.69;5043890;28;20628;-82
2023/10/29 07:27:38;;;;;;;1.03;0.60;;;;;;;14.22;87.75;98636.13;5036662;28;20215;-82
2023/10/29 07:30:05;;;;;;;2.73;0.77;;;;;;;14.19;86.95;98651.22;5042149;28;20226;-82
2023/10/29 07:32:34;;;;;;;1.80;1.10;;;;;;;14.23;88.24;98658.84;5037885;28;20211;-82
2023/10/29 07:35:00;;;;;;;2.33;1.00;;;;;;;14.25;87.15;98659.59;5036042;28;20204;-82
2023/10/29 07:37:27;;;;;;;1.47;0.80;;;;;;;14.28;87.04;98662.00;5035862;28;20211;-82
2023/10/29 07:39:53;;;;;;;1.70;1.23;;;;;;;14.26;87.18;98665.66;5035496;28;20721;-82
2023/10/29 07:42:23;;;;;;;2.30;0.70;;;;;;;14.27;87.13;98669.97;5027109;28;20215;-83
2023/10/29 07:44:49;;;;;;;1.50;0.80;;;;;;;14.27;86.29;98665.56;5026999;28;20281;-83
2023/10/29 07:47:15;;;;;;;1.63;0.70;;;;;;;14.36;86.21;98673.81;5034864;28;20204;-83
2023/10/29 07:49:51;;;;;;;1.50;0.90;;;;;;;14.32;86.32;98690.69;5034858;28;20246;-83
2023/10/29 07:52:29;;;;;;;0.70;0.70;;;;;;;14.35;86.41;98696.59;5037355;28;20563;-83
2023/10/29 07:55:00;;;;;;;1.47;0.80;;;;;;;14.41;86.64;98677.84;5036171;28;20195;-83
2023/10/29 07:57:26;;;;;;;0.83;0.80;;;;;;;14.33;85.83;98694.97;5034992;28;20217;-83
2023/10/29 07:59:57;;;;;;;1.43;0.77;;;;;;;14.37;85.59;98678.97;5035189;28;20228;-83
2023/10/29 08:02:25;;;;;;;2.17;0.70;;;;;;;14.38;85.89;98685.06;5034003;28;20212;-83
2023/10/29 08:04:55;;;;;;;1.60;0.80;;;;;;;14.46;86.19;98682.78;5035952;28;20226;-83
2023/10/29 08:07:21;;;;;;;7.43;6.80;;;;;;;14.34;85.40;98688.81;5039427;28;20204;-84
2023/10/29 08:09:56;;;;;;;1.40;0.93;;;;;;;14.41;85.36;98706.72;5034959;28;20746;-83
2023/10/29 08:12:22;;;;;;;0.80;0.80;;;;;;;14.43;85.42;98717.97;5026178;28;20245;-83
2023/10/29 08:14:49;;;;;;;3.47;0.90;;;;;;;14.44;84.73;98716.16;5025687;28;20211;-83
2023/10/29 08:17:29;;;;;;;0.90;0.80;;;;;;;14.47;84.70;98727.31;5028231;28;20207;-82
2023/10/29 08:19:58;;;;;;;1.90;0.83;;;;;;;14.49;84.34;98761.38;5035926;28;20231;-83
2023/10/29 08:22:25;;;;;;;0.97;0.77;;;;;;;14.41;84.44;98759.22;5035739;28;20211;-83
2023/10/29 08:24:51;;;;;;;2.00;0.80;;;;;;;14.40;84.56;98759.31;5026472;28;20226;-83
2023/10/29 08:27:18;;;;;;;1.40;0.60;;;;;;;14.47;83.79;98771.13;5034213;28;20215;-84
2023/10/29 08:29:45;;;;;;;1.20;0.80;;;;;;;14.52;83.27;98774.28;5034549;28;20227;-83
2023/10/29 08:32:13;;;;;;;1.70;1.00;;;;;;;14.58;83.60;98778.34;5035058;28;20206;-83
2023/10/29 08:34:41;;;;;;;2.70;0.53;;;;;;;14.63;83.50;98757.91;5033945;28;20218;-83
2023/10/29 08:37:08;;;;;;;1.13;0.53;;;;;;;14.63;82.76;98778.91;5034093;28;20207;-83
2023/10/29 08:39:36;;;;;;;1.40;0.80;;;;;;;14.65;83.19;98784.91;5033609;28;20222;-83
2023/10/29 08:42:02;;;;;;;2.00;0.73;;;;;;;14.66;82.72;98774.28;5030954;28;20294;-83
2023/10/29 08:44:29;;;;;;;3.53;0.90;;;;;;;14.69;83.84;98758.34;5026713;28;20304;-83
2023/10/29 08:46:56;;;;;;;2.60;0.70;;;;;;;14.64;82.35;98780.59;5035235;28;20204;-83
2023/10/29 08:49:22;;;;;;;0.77;0.77;;;;;;;14.77;82.74;98778.06;5032529;28;20662;-83
2023/10/29 08:51:50;;;;;;;3.43;0.60;;;;;;;14.56;81.54;98809.09;5024891;28;20214;-83
2023/10/29 08:54:17;;;;;;;0.80;0.70;;;;;;;14.74;81.97;98789.56;5023360;28;20196;-84
2023/10/29 08:56:44;;;;;;;0.93;0.60;;;;;;;14.87;82.24;98790.50;5022711;28;20709;-84
2023/10/29 08:59:11;;;;;;;1.27;0.90;;;;;;;14.90;82.44;98773.69;5024920;28;20235;-83
2023/10/29 09:01:38;;;;;;;1.57;1.37;;;;;;;14.75;81.67;98817.53;5022891;28;20214;-82
2023/10/29 09:04:04;;;;;;;0.70;0.60;;;;;;;14.87;81.98;98816.78;5023304;28;20225;-83
2023/10/29 09:06:32;;;;;;;1.07;0.60;;;;;;;14.86;81.90;98833.47;5021888;28;20220;-83
2023/10/29 09:11:36;;;;;;;1.33;0.80;;;;;;;14.84;81.11;98868.66;5256988;23;20246;-83
2023/10/29 09:14:31;;;;;;;0.60;0.60;;;;;;;14.84;81.40;98884.41;5074317;28;20215;-84
2023/10/29 09:16:57;;;;;;;1.33;0.73;;;;;;;14.78;82.12;98869.88;5071955;28;20202;-84
2023/10/29 09:19:24;;;;;;;0.90;0.63;;;;;;;14.87;82.83;98861.44;5054225;28;20267;-84
2023/10/29 09:21:51;;;;;;;1.23;0.60;;;;;;;14.89;82.21;98869.22;5047743;28;20208;-83
2023/10/29 09:24:18;;;;;;;1.70;0.60;;;;;;;14.96;82.04;98867.88;5051145;28;20645;-83
2023/10/29 09:26:45;;;;;;;0.50;0.50;;;;;;;15.01;82.88;98878.13;5051218;28;20213;-82
2023/10/29 09:29:12;;;;;;;1.07;0.53;;;;;;;15.07;82.78;98872.50;5050504;28;20622;-83
2023/10/29 09:31:39;;;;;;;1.13;0.60;;;;;;;15.04;81.67;98873.53;5050511;28;20230;-83
2023/10/29 09:34:06;;;;;;;1.97;0.80;;;;;;;15.14;82.07;98888.72;5052217;28;20658;-82
2023/10/29 09:36:32;;;;;;;0.57;0.53;;;;;;;15.24;81.48;98895.06;5048946;28;20203;-82
2023/10/29 09:38:59;;;;;;;1.17;0.40;;;;;;;15.35;80.96;98903.13;5052072;28;20225;-83
2023/10/29 09:41:26;;;;;;;0.70;0.50;;;;;;;15.44;80.50;98899.94;5053157;28;20305;-85
2023/10/29 09:43:56;;;;;;;0.90;0.60;;;;;;;15.42;81.23;98907.06;5054737;28;20250;-83
2023/10/29 09:46:24;;;;;;;0.90;0.50;;;;;;;15.54;80.46;98915.97;5051044;28;20212;-83
2023/10/29 09:48:52;;;;;;;2.37;0.70;;;;;;;15.50;79.47;98959.19;5050942;28;20227;-85
2023/10/29 09:51:20;;;;;;;2.03;0.67;;;;;;;15.53;80.39;98966.03;5049830;28;20211;-84
2023/10/29 09:53:47;;;;;;;0.90;0.67;;;;;;;15.57;79.91;98978.88;5050552;28;20199;-84
2023/10/29 09:56:14;;;;;;;0.97;0.73;;;;;;;15.63;79.78;98991.63;5053670;28;20572;-83
2023/10/29 09:58:40;;;;;;;1.03;0.60;;;;;;;15.50;79.81;99006.53;5049424;28;20597;-83
2023/10/29 10:01:08;;;;;;;2.67;0.70;;;;;;;15.63;80.56;98991.63;5051850;28;20672;-85
2023/10/29 10:03:35;;;;;;;0.40;0.40;;;;;;;15.61;79.93;98996.16;5049703;28;20213;-83
2023/10/29 10:06:02;;;;;;;1.23;0.70;;;;;;;15.54;80.30;99009.78;5051793;28;20577;-83
2023/10/29 10:08:30;;;;;;;0.50;0.50;;;;;;;15.54;80.88;98979.09;5049385;28;20236;-82
2023/10/29 10:10:58;;;;;;;1.03;0.60;;;;;;;15.57;80.49;98985.94;5051522;28;20215;-82
2023/10/29 10:13:36;;;;;;;0.40;0.40;;;;;;;15.51;80.06;99018.72;5054020;28;20294;-83
2023/10/29 10:16:08;;;;;;;0.60;0.60;;;;;;;15.48;79.27;99003.97;5052449;28;20212;-82
2023/10/29 10:18:49;;;;;;;0.50;0.50;;;;;;;15.56;79.60;99016.66;5047812;28;20250;-83
2023/10/29 10:21:16;;;;;;;0.67;0.50;;;;;;;15.65;80.48;98992.38;5050736;28;20203;-83
2023/10/29 10:23:47;;;;;;;0.57;0.57;;;;;;;15.67;80.45;99001.03;5049235;28;20202;-84
2023/10/29 10:26:17;;;;;;;0.50;0.50;;;;;;;15.60;79.99;99002.38;5050710;28;20207;-83
2023/10/29 10:28:54;;;;;;;2.37;1.67;;;;;;;15.65;80.03;98996.81;5049246;28;20284;-84
2023/10/29 10:31:22;;;;;;;4.33;0.90;;;;;;;15.75;81.30;98986.56;5050645;28;20237;-84
2023/10/29 10:33:49;;;;;;;1.33;0.50;;;;;;;15.62;79.02;99012.81;5049089;28;20212;-83
2023/10/29 10:36:31;;;;;;;0.80;0.53;;;;;;;15.61;77.54;99051.38;5050257;28;20265;-83
2023/10/29 10:38:57;;;;;;;2.50;1.00;;;;;;;15.89;79.92;99032.09;5051723;28;20254;-82
2023/10/29 10:41:24;;;;;;;0.60;0.60;;;;;;;15.84;78.07;99055.25;5050894;28;20230;-85
2023/10/29 10:44:02;;;;;;;0.67;0.60;;;;;;;15.86;78.31;99042.84;5050984;28;20231;-82
2023/10/29 10:46:35;;;;;;;1.27;0.40;;;;;;;15.90;77.91;99046.13;5048892;28;20219;-84
2023/10/29 10:49:02;;;;;;;0.53;0.50;;;;;;;15.93;77.59;99061.72;5049895;28;20287;-83
2023/10/29 10:51:31;;;;;;;24.33;1.10;;;;;;;15.89;77.90;99066.31;5050729;28;20216;-84
2023/10/29 10:54:01;;;;;;;2.43;0.53;;;;;;;16.02;78.17;99047.13;5053211;28;20299;-83
2023/10/29 10:56:31;;;;;;;1.30;0.60;;;;;;;15.99;77.37;99042.06;5058840;28;20231;-84
2023/10/29 10:59:00;;;;;;;1.43;0.57;;;;;;;15.97;77.50;99068.47;5056764;28;20289;-84
2023/10/29 11:01:28;;;;;;;0.73;0.50;;;;;;;15.99;76.24;99082.38;5058200;28;20211;-84
2023/10/29 11:04:07;;;;;;;0.70;0.60;;;;;;;16.07;77.25;99060.84;5057214;28;20217;-83
2023/10/29 11:06:39;;;;;;;0.60;0.40;;;;;;;16.03;77.51;99052.28;5056829;28;20213;-84
2023/10/29 11:09:12;;;;;;;2.07;1.17;;;;;;;16.14;77.89;99034.97;5055949;28;20216;-83
2023/10/29 11:11:45;;;;;;;0.80;0.50;;;;;;;16.18;78.50;99033.84;5055890;28;20218;-84
2023/10/29 11:14:13;;;;;;;1.97;0.60;;;;;;;16.19;78.82;99015.28;5055850;28;20225;-84
2023/10/29 11:16:50;;;;;;;1.07;0.50;;;;;;;15.95;76.71;99051.09;5050390;28;20204;-83
2023/10/29 11:19:42;;;;;;;2.00;0.50;;;;;;;16.05;77.78;99049.56;5048805;28;20226;-82
2023/10/29 11:22:16;;;;;;;0.63;0.50;;;;;;;15.99;78.04;99056.06;5049449;28;20216;-83
2023/10/29 11:24:43;;;;;;;0.67;0.50;;;;;;;16.11;77.75;99049.16;5049495;28;20238;-84
2023/10/29 11:27:40;;;;;;;0.50;0.50;;;;;;;15.92;78.02;99048.69;5048167;28;20304;-83
2023/10/29 11:30:14;;;;;;;1.90;0.73;;;;;;;15.96;78.23;99040.47;5048079;28;20250;-82
2023/10/29 11:32:41;;;;;;;0.70;0.60;;;;;;;16.09;77.56;99048.41;5051989;28;20237;-83
2023/10/29 11:35:20;;;;;;;2.20;0.80;;;;;;;15.95;77.33;99049.31;5055448;28;20200;-83
2023/10/29 11:37:48;;;;;;;0.60;0.50;;;;;;;15.94;76.87;99045.00;5055351;28;20586;-82